sensor_id;sensor_type;location;lat;lon;timestamp;pressure;altitude;pressure_sealevel;temperature
71205;BMP180;58935;54.498;18.544;2022-08-24T00:00:20;100914.40;;;20.90
71205;BMP180;58935;54.498;18.544;2022-08-24T00:02:46;100910.40;;;20.82
71205;BMP180;58935;54.498;18.544;2022-08-24T00:05:13;100910.40;;;20.80
71205;BMP180;58935;54.498;18.544;2022-08-24T00:07:40;100905.80;;;20.70
71205;BMP180;58935;54.498;18.544;2022-08-24T00:10:08;100907.40;;;20.70
71205;BMP180;58935;54.498;18.544;2022-08-24T00:12:34;100905.20;;;20.70
71205;BMP180;58935;54.498;18.544;2022-08-24T00:15:01;100904.80;;;20.70
71205;BMP180;58935;54.498;18.544;2022-08-24T00:17:27;100905.80;;;20.62
71205;BMP180;58935;54.498;18.544;2022-08-24T00:19:53;100898.80;;;20.60
71205;BMP180;58935;54.498;18.544;2022-08-24T00:22:19;100902.00;;;20.50
71205;BMP180;58935;54.498;18.544;2022-08-24T00:24:45;100900.40;;;20.50
71205;BMP180;58935;54.498;18.544;2022-08-24T00:27:10;100894.60;;;20.40
71205;BMP180;58935;54.498;18.544;2022-08-24T00:29:38;100893.60;;;20.40
71205;BMP180;58935;54.498;18.544;2022-08-24T00:32:04;100897.00;;;20.30
71205;BMP180;58935;54.498;18.544;2022-08-24T00:34:30;100898.80;;;20.30
71205;BMP180;58935;54.498;18.544;2022-08-24T00:36:58;100895.60;;;20.30
71205;BMP180;58935;54.498;18.544;2022-08-24T00:39:23;100895.20;;;20.20
71205;BMP180;58935;54.498;18.544;2022-08-24T00:41:50;100892.80;;;20.20
71205;BMP180;58935;54.498;18.544;2022-08-24T00:44:18;100889.00;;;20.10
71205;BMP180;58935;54.498;18.544;2022-08-24T00:47:00;100884.60;;;20.10
71205;BMP180;58935;54.498;18.544;2022-08-24T00:49:39;100886.40;;;20.10
71205;BMP180;58935;54.498;18.544;2022-08-24T00:52:19;100880.80;;;20.10
71205;BMP180;58935;54.498;18.544;2022-08-24T00:54:52;100878.80;;;20.00
71205;BMP180;58935;54.498;18.544;2022-08-24T00:57:24;100879.20;;;20.00
71205;BMP180;58935;54.498;18.544;2022-08-24T01:00:01;100872.00;;;20.00
71205;BMP180;58935;54.498;18.544;2022-08-24T01:02:34;100871.00;;;20.00
71205;BMP180;58935;54.498;18.544;2022-08-24T01:05:06;100868.60;;;20.00
71205;BMP180;58935;54.498;18.544;2022-08-24T01:07:34;100871.40;;;20.00
71205;BMP180;58935;54.498;18.544;2022-08-24T01:10:11;100869.00;;;20.00
71205;BMP180;58935;54.498;18.544;2022-08-24T01:12:42;100863.40;;;20.00
71205;BMP180;58935;54.498;18.544;2022-08-24T01:15:11;100863.00;;;20.00
71205;BMP180;58935;54.498;18.544;2022-08-24T01:17:37;100862.60;;;20.00
71205;BMP180;58935;54.498;18.544;2022-08-24T01:20:08;100860.60;;;19.96
71205;BMP180;58935;54.498;18.544;2022-08-24T01:25:36;100863.60;;;20.00
71205;BMP180;58935;54.498;18.544;2022-08-24T01:28:09;100858.60;;;20.00
71205;BMP180;58935;54.498;18.544;2022-08-24T01:30:36;100867.00;;;20.06
71205;BMP180;58935;54.498;18.544;2022-08-24T01:33:06;100867.80;;;20.10
71205;BMP180;58935;54.498;18.544;2022-08-24T01:35:34;100869.00;;;20.10
71205;BMP180;58935;54.498;18.544;2022-08-24T01:38:05;100868.00;;;20.10
71205;BMP180;58935;54.498;18.544;2022-08-24T01:40:37;100875.60;;;20.10
71205;BMP180;58935;54.498;18.544;2022-08-24T01:43:06;100875.60;;;20.10
71205;BMP180;58935;54.498;18.544;2022-08-24T01:45:32;100874.00;;;20.10
71205;BMP180;58935;54.498;18.544;2022-08-24T01:47:58;100875.60;;;20.16
71205;BMP180;58935;54.498;18.544;2022-08-24T01:50:24;100874.00;;;20.10
71205;BMP180;58935;54.498;18.544;2022-08-24T01:52:51;100873.00;;;20.10
71205;BMP180;58935;54.498;18.544;2022-08-24T01:55:18;100865.80;;;20.10
71205;BMP180;58935;54.498;18.544;2022-08-24T01:57:44;100863.80;;;20.10
71205;BMP180;58935;54.498;18.544;2022-08-24T02:00:13;100861.40;;;20.04
71205;BMP180;58935;54.498;18.544;2022-08-24T02:02:41;100867.40;;;20.00
71205;BMP180;58935;54.498;18.544;2022-08-24T02:05:10;100870.40;;;20.00
71205;BMP180;58935;54.498;18.544;2022-08-24T02:07:36;100864.00;;;20.00
71205;BMP180;58935;54.498;18.544;2022-08-24T02:10:04;100869.00;;;20.00
71205;BMP180;58935;54.498;18.544;2022-08-24T02:12:32;100876.40;;;20.00
71205;BMP180;58935;54.498;18.544;2022-08-24T02:14:58;100888.40;;;20.10
71205;BMP180;58935;54.498;18.544;2022-08-24T02:17:24;100890.80;;;20.10
71205;BMP180;58935;54.498;18.544;2022-08-24T02:19:50;100893.20;;;20.10
71205;BMP180;58935;54.498;18.544;2022-08-24T02:22:15;100898.00;;;20.10
71205;BMP180;58935;54.498;18.544;2022-08-24T02:24:41;100903.80;;;20.10
71205;BMP180;58935;54.498;18.544;2022-08-24T02:27:06;100908.60;;;20.16
71205;BMP180;58935;54.498;18.544;2022-08-24T02:29:33;100905.80;;;20.14
71205;BMP180;58935;54.498;18.544;2022-08-24T02:31:58;100909.60;;;20.20
71205;BMP180;58935;54.498;18.544;2022-08-24T02:34:24;100914.80;;;20.20
71205;BMP180;58935;54.498;18.544;2022-08-24T02:36:50;100913.80;;;20.24
71205;BMP180;58935;54.498;18.544;2022-08-24T02:39:18;100917.80;;;20.30
71205;BMP180;58935;54.498;18.544;2022-08-24T02:41:44;100920.00;;;20.30
71205;BMP180;58935;54.498;18.544;2022-08-24T02:44:10;100914.80;;;20.30
71205;BMP180;58935;54.498;18.544;2022-08-24T02:46:35;100912.00;;;20.30
71205;BMP180;58935;54.498;18.544;2022-08-24T02:49:02;100912.00;;;20.30
71205;BMP180;58935;54.498;18.544;2022-08-24T02:51:32;100911.40;;;20.30
71205;BMP180;58935;54.498;18.544;2022-08-24T02:54:00;100918.00;;;20.30
71205;BMP180;58935;54.498;18.544;2022-08-24T02:56:28;100922.60;;;20.30
71205;BMP180;58935;54.498;18.544;2022-08-24T02:58:55;100921.80;;;20.30
71205;BMP180;58935;54.498;18.544;2022-08-24T03:01:21;100920.60;;;20.30
71205;BMP180;58935;54.498;18.544;2022-08-24T03:03:47;100918.80;;;20.30
71205;BMP180;58935;54.498;18.544;2022-08-24T03:06:12;100915.20;;;20.30
71205;BMP180;58935;54.498;18.544;2022-08-24T03:08:38;100911.00;;;20.30
71205;BMP180;58935;54.498;18.544;2022-08-24T03:11:05;100915.20;;;20.30
71205;BMP180;58935;54.498;18.544;2022-08-24T03:13:34;100913.00;;;20.30
71205;BMP180;58935;54.498;18.544;2022-08-24T03:16:00;100917.00;;;20.30
71205;BMP180;58935;54.498;18.544;2022-08-24T03:18:26;100920.20;;;20.30
71205;BMP180;58935;54.498;18.544;2022-08-24T03:20:54;100925.40;;;20.30
71205;BMP180;58935;54.498;18.544;2022-08-24T03:23:21;100932.60;;;20.30
71205;BMP180;58935;54.498;18.544;2022-08-24T03:25:49;100931.60;;;20.30
71205;BMP180;58935;54.498;18.544;2022-08-24T03:28:18;100937.00;;;20.36
71205;BMP180;58935;54.498;18.544;2022-08-24T03:30:44;100939.40;;;20.40
71205;BMP180;58935;54.498;18.544;2022-08-24T03:33:10;100941.40;;;20.40
71205;BMP180;58935;54.498;18.544;2022-08-24T03:35:36;100939.80;;;20.40
71205;BMP180;58935;54.498;18.544;2022-08-24T03:38:02;100938.20;;;20.40
71205;BMP180;58935;54.498;18.544;2022-08-24T03:40:29;100936.40;;;20.40
71205;BMP180;58935;54.498;18.544;2022-08-24T03:42:59;100939.80;;;20.46
71205;BMP180;58935;54.498;18.544;2022-08-24T03:45:25;100947.40;;;20.50
71205;BMP180;58935;54.498;18.544;2022-08-24T03:47:52;100953.00;;;20.50
71205;BMP180;58935;54.498;18.544;2022-08-24T03:50:19;100953.80;;;20.50
71205;BMP180;58935;54.498;18.544;2022-08-24T03:52:46;100958.20;;;20.56
71205;BMP180;58935;54.498;18.544;2022-08-24T03:55:12;100966.60;;;20.60
71205;BMP180;58935;54.498;18.544;2022-08-24T03:57:38;100972.20;;;20.60
71205;BMP180;58935;54.498;18.544;2022-08-24T04:00:09;100972.20;;;20.60
71205;BMP180;58935;54.498;18.544;2022-08-24T04:02:36;100975.40;;;20.70
71205;BMP180;58935;54.498;18.544;2022-08-24T04:05:04;100973.40;;;20.70
71205;BMP180;58935;54.498;18.544;2022-08-24T04:07:30;100975.80;;;20.70
71205;BMP180;58935;54.498;18.544;2022-08-24T04:09:56;100977.60;;;20.70
71205;BMP180;58935;54.498;18.544;2022-08-24T04:12:21;100980.00;;;20.80
71205;BMP180;58935;54.498;18.544;2022-08-24T04:14:51;100978.80;;;20.80
71205;BMP180;58935;54.498;18.544;2022-08-24T04:17:19;100980.80;;;20.86
71205;BMP180;58935;54.498;18.544;2022-08-24T04:19:44;100976.20;;;20.90
71205;BMP180;58935;54.498;18.544;2022-08-24T04:22:24;100978.00;;;20.90
71205;BMP180;58935;54.498;18.544;2022-08-24T04:24:50;100980.20;;;20.90
71205;BMP180;58935;54.498;18.544;2022-08-24T04:27:16;100980.60;;;20.90
71205;BMP180;58935;54.498;18.544;2022-08-24T04:29:42;100986.20;;;20.96
71205;BMP180;58935;54.498;18.544;2022-08-24T04:32:08;100984.80;;;21.00
71205;BMP180;58935;54.498;18.544;2022-08-24T04:34:34;100984.60;;;21.00
71205;BMP180;58935;54.498;18.544;2022-08-24T04:37:00;100983.60;;;21.00
71205;BMP180;58935;54.498;18.544;2022-08-24T04:39:26;100987.80;;;21.00
71205;BMP180;58935;54.498;18.544;2022-08-24T04:41:51;100991.40;;;21.02
71205;BMP180;58935;54.498;18.544;2022-08-24T04:44:17;100991.20;;;21.10
71205;BMP180;58935;54.498;18.544;2022-08-24T04:46:43;100989.60;;;21.10
71205;BMP180;58935;54.498;18.544;2022-08-24T04:49:08;100990.00;;;21.10
71205;BMP180;58935;54.498;18.544;2022-08-24T04:51:35;100985.00;;;21.10
71205;BMP180;58935;54.498;18.544;2022-08-24T04:54:00;100983.00;;;21.10
71205;BMP180;58935;54.498;18.544;2022-08-24T04:56:26;100989.60;;;21.10
71205;BMP180;58935;54.498;18.544;2022-08-24T04:58:53;100990.80;;;21.10
71205;BMP180;58935;54.498;18.544;2022-08-24T05:01:24;100993.00;;;21.14
71205;BMP180;58935;54.498;18.544;2022-08-24T05:03:52;100992.40;;;21.20
71205;BMP180;58935;54.498;18.544;2022-08-24T05:06:21;100997.80;;;21.20
71205;BMP180;58935;54.498;18.544;2022-08-24T05:08:47;100994.80;;;21.20
71205;BMP180;58935;54.498;18.544;2022-08-24T05:11:16;100999.80;;;21.20
71205;BMP180;58935;54.498;18.544;2022-08-24T05:13:42;101000.00;;;21.20
71205;BMP180;58935;54.498;18.544;2022-08-24T05:16:14;100992.60;;;21.20
71205;BMP180;58935;54.498;18.544;2022-08-24T05:18:40;100992.20;;;21.20
71205;BMP180;58935;54.498;18.544;2022-08-24T05:21:09;100993.20;;;21.20
71205;BMP180;58935;54.498;18.544;2022-08-24T05:23:37;100991.80;;;21.22
71205;BMP180;58935;54.498;18.544;2022-08-24T05:26:15;100994.00;;;21.22
71205;BMP180;58935;54.498;18.544;2022-08-24T05:28:42;100998.60;;;21.30
71205;BMP180;58935;54.498;18.544;2022-08-24T05:31:13;101003.80;;;21.30
71205;BMP180;58935;54.498;18.544;2022-08-24T05:33:39;101003.60;;;21.30
71205;BMP180;58935;54.498;18.544;2022-08-24T05:36:17;100999.00;;;21.30
71205;BMP180;58935;54.498;18.544;2022-08-24T05:38:43;101000.00;;;21.40
71205;BMP180;58935;54.498;18.544;2022-08-24T05:41:08;101000.40;;;21.40
71205;BMP180;58935;54.498;18.544;2022-08-24T05:43:34;101002.60;;;21.40
71205;BMP180;58935;54.498;18.544;2022-08-24T05:46:00;101002.40;;;21.40
71205;BMP180;58935;54.498;18.544;2022-08-24T05:48:26;101003.20;;;21.50
71205;BMP180;58935;54.498;18.544;2022-08-24T05:50:56;101010.40;;;21.50
71205;BMP180;58935;54.498;18.544;2022-08-24T05:53:23;101012.40;;;21.56
71205;BMP180;58935;54.498;18.544;2022-08-24T05:55:49;101015.20;;;21.58
71205;BMP180;58935;54.498;18.544;2022-08-24T05:58:15;101011.60;;;21.60
71205;BMP180;58935;54.498;18.544;2022-08-24T06:00:40;101010.80;;;21.60
71205;BMP180;58935;54.498;18.544;2022-08-24T06:03:10;101010.60;;;21.60
71205;BMP180;58935;54.498;18.544;2022-08-24T06:05:40;101012.00;;;21.60
71205;BMP180;58935;54.498;18.544;2022-08-24T06:08:06;101013.40;;;21.60
71205;BMP180;58935;54.498;18.544;2022-08-24T06:10:43;101014.00;;;21.64
71205;BMP180;58935;54.498;18.544;2022-08-24T06:13:10;101018.80;;;21.70
71205;BMP180;58935;54.498;18.544;2022-08-24T06:15:38;101017.60;;;21.70
71205;BMP180;58935;54.498;18.544;2022-08-24T06:18:04;101019.60;;;21.70
71205;BMP180;58935;54.498;18.544;2022-08-24T06:20:32;101019.00;;;21.80
71205;BMP180;58935;54.498;18.544;2022-08-24T06:22:58;101021.60;;;21.90
71205;BMP180;58935;54.498;18.544;2022-08-24T06:25:23;101025.40;;;22.00
71205;BMP180;58935;54.498;18.544;2022-08-24T06:27:52;101027.80;;;22.10
71205;BMP180;58935;54.498;18.544;2022-08-24T06:30:18;101024.80;;;22.20
71205;BMP180;58935;54.498;18.544;2022-08-24T06:32:43;101028.00;;;22.20
71205;BMP180;58935;54.498;18.544;2022-08-24T06:35:09;101025.60;;;22.20
71205;BMP180;58935;54.498;18.544;2022-08-24T06:37:34;101025.40;;;22.20
71205;BMP180;58935;54.498;18.544;2022-08-24T06:40:00;101022.60;;;22.20
71205;BMP180;58935;54.498;18.544;2022-08-24T06:42:25;101026.80;;;22.20
71205;BMP180;58935;54.498;18.544;2022-08-24T06:44:53;101024.60;;;22.30
71205;BMP180;58935;54.498;18.544;2022-08-24T06:47:20;101026.40;;;22.36
71205;BMP180;58935;54.498;18.544;2022-08-24T06:49:46;101033.20;;;22.40
71205;BMP180;58935;54.498;18.544;2022-08-24T06:52:11;101033.60;;;22.44
71205;BMP180;58935;54.498;18.544;2022-08-24T06:54:37;101039.40;;;22.50
71205;BMP180;58935;54.498;18.544;2022-08-24T06:57:05;101040.00;;;22.50
71205;BMP180;58935;54.498;18.544;2022-08-24T06:59:31;101036.20;;;22.50
71205;BMP180;58935;54.498;18.544;2022-08-24T07:01:58;101041.00;;;22.60
71205;BMP180;58935;54.498;18.544;2022-08-24T07:04:25;101045.00;;;22.60
71205;BMP180;58935;54.498;18.544;2022-08-24T07:06:54;101046.00;;;22.60
71205;BMP180;58935;54.498;18.544;2022-08-24T07:09:20;101045.80;;;22.60
71205;BMP180;58935;54.498;18.544;2022-08-24T07:11:50;101046.00;;;22.64
71205;BMP180;58935;54.498;18.544;2022-08-24T07:14:16;101049.00;;;22.70
71205;BMP180;58935;54.498;18.544;2022-08-24T07:16:43;101049.20;;;22.70
71205;BMP180;58935;54.498;18.544;2022-08-24T07:19:09;101060.40;;;22.80
71205;BMP180;58935;54.498;18.544;2022-08-24T07:21:34;101061.20;;;22.80
71205;BMP180;58935;54.498;18.544;2022-08-24T07:24:00;101064.60;;;22.80
71205;BMP180;58935;54.498;18.544;2022-08-24T07:26:29;101065.20;;;22.90
71205;BMP180;58935;54.498;18.544;2022-08-24T07:29:01;101061.20;;;23.00
71205;BMP180;58935;54.498;18.544;2022-08-24T07:31:32;101061.20;;;23.00
71205;BMP180;58935;54.498;18.544;2022-08-24T07:33:58;101064.20;;;22.90
71205;BMP180;58935;54.498;18.544;2022-08-24T07:36:23;101067.80;;;22.90
71205;BMP180;58935;54.498;18.544;2022-08-24T07:38:50;101065.80;;;22.90
71205;BMP180;58935;54.498;18.544;2022-08-24T07:41:17;101066.80;;;22.88
71205;BMP180;58935;54.498;18.544;2022-08-24T07:43:45;101064.80;;;22.90
71205;BMP180;58935;54.498;18.544;2022-08-24T07:46:11;101068.40;;;23.00
71205;BMP180;58935;54.498;18.544;2022-08-24T07:48:38;101063.80;;;23.00
71205;BMP180;58935;54.498;18.544;2022-08-24T07:51:10;101064.00;;;23.00
71205;BMP180;58935;54.498;18.544;2022-08-24T07:53:36;101060.60;;;23.00
71205;BMP180;58935;54.498;18.544;2022-08-24T07:56:02;101070.20;;;23.00
71205;BMP180;58935;54.498;18.544;2022-08-24T07:58:28;101071.20;;;23.10
71205;BMP180;58935;54.498;18.544;2022-08-24T08:00:54;101066.80;;;23.10
71205;BMP180;58935;54.498;18.544;2022-08-24T08:03:19;101072.00;;;23.20
71205;BMP180;58935;54.498;18.544;2022-08-24T08:05:46;101071.40;;;23.20
71205;BMP180;58935;54.498;18.544;2022-08-24T08:08:14;101072.80;;;23.20
71205;BMP180;58935;54.498;18.544;2022-08-24T08:10:39;101069.40;;;23.20
71205;BMP180;58935;54.498;18.544;2022-08-24T08:13:07;101069.80;;;23.16
71205;BMP180;58935;54.498;18.544;2022-08-24T08:15:33;101074.60;;;23.10
71205;BMP180;58935;54.498;18.544;2022-08-24T08:17:59;101074.00;;;23.10
71205;BMP180;58935;54.498;18.544;2022-08-24T08:20:24;101079.00;;;23.10
71205;BMP180;58935;54.498;18.544;2022-08-24T08:22:50;101078.60;;;23.10
71205;BMP180;58935;54.498;18.544;2022-08-24T08:25:19;101069.60;;;23.18
71205;BMP180;58935;54.498;18.544;2022-08-24T08:27:45;101075.00;;;23.20
71205;BMP180;58935;54.498;18.544;2022-08-24T08:30:12;101082.00;;;23.16
71205;BMP180;58935;54.498;18.544;2022-08-24T08:32:37;101082.80;;;23.18
71205;BMP180;58935;54.498;18.544;2022-08-24T08:35:04;101086.60;;;23.16
71205;BMP180;58935;54.498;18.544;2022-08-24T08:37:30;101086.80;;;23.10
71205;BMP180;58935;54.498;18.544;2022-08-24T08:39:56;101087.20;;;23.10
71205;BMP180;58935;54.498;18.544;2022-08-24T08:42:55;101091.40;;;23.20
71205;BMP180;58935;54.498;18.544;2022-08-24T08:45:34;101097.80;;;23.30
71205;BMP180;58935;54.498;18.544;2022-08-24T08:48:35;101095.60;;;23.40
71205;BMP180;58935;54.498;18.544;2022-08-24T08:57:30;101084.80;;;23.60
71205;BMP180;58935;54.498;18.544;2022-08-24T09:00:27;101078.40;;;23.62
71205;BMP180;58935;54.498;18.544;2022-08-24T09:03:22;101078.40;;;23.68
71205;BMP180;58935;54.498;18.544;2022-08-24T09:06:13;101079.80;;;23.60
71205;BMP180;58935;54.498;18.544;2022-08-24T09:09:10;101082.40;;;23.50
71205;BMP180;58935;54.498;18.544;2022-08-24T09:12:19;101090.60;;;23.40
71205;BMP180;58935;54.498;18.544;2022-08-24T09:15:13;101096.60;;;23.40
71205;BMP180;58935;54.498;18.544;2022-08-24T09:18:06;101094.40;;;23.22
71205;BMP180;58935;54.498;18.544;2022-08-24T09:30:10;101094.80;;;23.16
71205;BMP180;58935;54.498;18.544;2022-08-24T09:36:08;101090.80;;;23.14
71205;BMP180;58935;54.498;18.544;2022-08-24T09:39:05;101089.40;;;23.00
71205;BMP180;58935;54.498;18.544;2022-08-24T09:41:59;101093.00;;;23.04
71205;BMP180;58935;54.498;18.544;2022-08-24T09:51:10;101087.80;;;23.00
71205;BMP180;58935;54.498;18.544;2022-08-24T09:56:36;101083.40;;;23.10
71205;BMP180;58935;54.498;18.544;2022-08-24T09:59:21;101083.00;;;23.10
71205;BMP180;58935;54.498;18.544;2022-08-24T10:08:12;101080.80;;;23.00
71205;BMP180;58935;54.498;18.544;2022-08-24T10:11:25;101087.00;;;23.00
71205;BMP180;58935;54.498;18.544;2022-08-24T10:14:15;101086.20;;;23.00
71205;BMP180;58935;54.498;18.544;2022-08-24T10:17:04;101083.20;;;23.00
71205;BMP180;58935;54.498;18.544;2022-08-24T10:19:48;101077.40;;;23.00
71205;BMP180;58935;54.498;18.544;2022-08-24T10:22:37;101076.20;;;22.90
71205;BMP180;58935;54.498;18.544;2022-08-24T10:25:32;101074.40;;;23.00
71205;BMP180;58935;54.498;18.544;2022-08-24T10:28:32;101078.40;;;23.00
71205;BMP180;58935;54.498;18.544;2022-08-24T10:31:06;101082.60;;;23.10
71205;BMP180;58935;54.498;18.544;2022-08-24T10:36:48;101089.80;;;23.10
71205;BMP180;58935;54.498;18.544;2022-08-24T10:39:54;101090.60;;;23.10
71205;BMP180;58935;54.498;18.544;2022-08-24T10:42:47;101091.80;;;23.10
71205;BMP180;58935;54.498;18.544;2022-08-24T10:46:22;101099.40;;;23.10
71205;BMP180;58935;54.498;18.544;2022-08-24T10:52:21;101103.40;;;23.00
71205;BMP180;58935;54.498;18.544;2022-08-24T10:54:54;101102.40;;;23.00
71205;BMP180;58935;54.498;18.544;2022-08-24T10:57:38;101102.20;;;23.02
71205;BMP180;58935;54.498;18.544;2022-08-24T11:00:10;101107.00;;;23.00
71205;BMP180;58935;54.498;18.544;2022-08-24T11:02:41;101104.80;;;22.90
71205;BMP180;58935;54.498;18.544;2022-08-24T11:05:16;101102.40;;;22.90
71205;BMP180;58935;54.498;18.544;2022-08-24T11:08:00;101103.40;;;22.90
71205;BMP180;58935;54.498;18.544;2022-08-24T11:10:36;101101.80;;;22.90
71205;BMP180;58935;54.498;18.544;2022-08-24T11:13:21;101105.00;;;23.00
71205;BMP180;58935;54.498;18.544;2022-08-24T11:15:59;101106.40;;;23.10
71205;BMP180;58935;54.498;18.544;2022-08-24T11:18:45;101113.40;;;23.20
71205;BMP180;58935;54.498;18.544;2022-08-24T11:21:28;101113.40;;;23.30
71205;BMP180;58935;54.498;18.544;2022-08-24T11:24:01;101116.00;;;23.40
71205;BMP180;58935;54.498;18.544;2022-08-24T11:26:28;101113.00;;;23.44
71205;BMP180;58935;54.498;18.544;2022-08-24T11:29:00;101115.40;;;23.50
71205;BMP180;58935;54.498;18.544;2022-08-24T11:31:34;101115.00;;;23.50
71205;BMP180;58935;54.498;18.544;2022-08-24T11:34:07;101120.80;;;23.56
71205;BMP180;58935;54.498;18.544;2022-08-24T11:36:37;101118.40;;;23.60
71205;BMP180;58935;54.498;18.544;2022-08-24T11:39:26;101115.80;;;23.60
71205;BMP180;58935;54.498;18.544;2022-08-24T11:44:39;101121.40;;;23.70
71205;BMP180;58935;54.498;18.544;2022-08-24T11:47:33;101124.80;;;23.70
71205;BMP180;58935;54.498;18.544;2022-08-24T11:50:24;101120.20;;;23.80
71205;BMP180;58935;54.498;18.544;2022-08-24T11:53:13;101123.80;;;23.90
71205;BMP180;58935;54.498;18.544;2022-08-24T11:56:03;101123.20;;;24.00
71205;BMP180;58935;54.498;18.544;2022-08-24T11:59:00;101125.20;;;23.96
71205;BMP180;58935;54.498;18.544;2022-08-24T12:01:35;101124.80;;;23.78
71205;BMP180;58935;54.498;18.544;2022-08-24T12:04:24;101127.00;;;23.60
71205;BMP180;58935;54.498;18.544;2022-08-24T12:07:21;101131.00;;;23.50
71205;BMP180;58935;54.498;18.544;2022-08-24T12:10:10;101129.80;;;23.40
71205;BMP180;58935;54.498;18.544;2022-08-24T12:15:50;101136.60;;;23.40
71205;BMP180;58935;54.498;18.544;2022-08-24T12:21:24;101135.00;;;23.20
71205;BMP180;58935;54.498;18.544;2022-08-24T12:23:59;101132.80;;;23.20
71205;BMP180;58935;54.498;18.544;2022-08-24T12:26:36;101134.20;;;23.30
71205;BMP180;58935;54.498;18.544;2022-08-24T12:29:11;101131.80;;;23.48
71205;BMP180;58935;54.498;18.544;2022-08-24T12:31:49;101126.60;;;23.68
71205;BMP180;58935;54.498;18.544;2022-08-24T12:34:29;101128.20;;;23.90
71205;BMP180;58935;54.498;18.544;2022-08-24T12:37:07;101125.00;;;24.00
71205;BMP180;58935;54.498;18.544;2022-08-24T12:39:41;101129.20;;;24.18
71205;BMP180;58935;54.498;18.544;2022-08-24T12:42:27;101129.60;;;24.24
71205;BMP180;58935;54.498;18.544;2022-08-24T12:44:58;101132.80;;;24.40
71205;BMP180;58935;54.498;18.544;2022-08-24T12:47:40;101132.60;;;24.44
71205;BMP180;58935;54.498;18.544;2022-08-24T12:53:39;101136.00;;;24.54
71205;BMP180;58935;54.498;18.544;2022-08-24T12:59:21;101141.80;;;24.60
71205;BMP180;58935;54.498;18.544;2022-08-24T13:02:00;101135.40;;;24.60
71205;BMP180;58935;54.498;18.544;2022-08-24T13:04:58;101135.00;;;24.52
71205;BMP180;58935;54.498;18.544;2022-08-24T13:10:33;101139.20;;;24.80
71205;BMP180;58935;54.498;18.544;2022-08-24T13:13:11;101144.60;;;24.84
71205;BMP180;58935;54.498;18.544;2022-08-24T13:15:56;101145.00;;;24.90
71205;BMP180;58935;54.498;18.544;2022-08-24T13:18:45;101147.60;;;25.00
71205;BMP180;58935;54.498;18.544;2022-08-24T13:21:36;101153.20;;;24.90
71205;BMP180;58935;54.498;18.544;2022-08-24T13:24:40;101156.00;;;24.90
71205;BMP180;58935;54.498;18.544;2022-08-24T13:27:45;101157.40;;;24.80
71205;BMP180;58935;54.498;18.544;2022-08-24T13:30:27;101161.60;;;24.70
71205;BMP180;58935;54.498;18.544;2022-08-24T13:33:03;101157.20;;;24.50
71205;BMP180;58935;54.498;18.544;2022-08-24T13:35:54;101154.20;;;24.30
71205;BMP180;58935;54.498;18.544;2022-08-24T13:38:47;101159.00;;;24.20
71205;BMP180;58935;54.498;18.544;2022-08-24T13:41:37;101160.80;;;24.00
71205;BMP180;58935;54.498;18.544;2022-08-24T13:44:19;101155.40;;;23.80
71205;BMP180;58935;54.498;18.544;2022-08-24T13:47:11;101158.40;;;23.80
71205;BMP180;58935;54.498;18.544;2022-08-24T13:49:54;101164.20;;;23.72
71205;BMP180;58935;54.498;18.544;2022-08-24T13:53:34;101158.80;;;23.88
71205;BMP180;58935;54.498;18.544;2022-08-24T13:55:54;101157.60;;;24.00
71205;BMP180;58935;54.498;18.544;2022-08-24T13:58:41;101158.20;;;24.20
71205;BMP180;58935;54.498;18.544;2022-08-24T14:01:35;101155.00;;;24.40
71205;BMP180;58935;54.498;18.544;2022-08-24T14:10:13;101158.80;;;24.50
71205;BMP180;58935;54.498;18.544;2022-08-24T14:15:51;101165.80;;;24.40
71205;BMP180;58935;54.498;18.544;2022-08-24T14:21:53;101160.00;;;24.46
71205;BMP180;58935;54.498;18.544;2022-08-24T14:24:42;101164.40;;;24.40
71205;BMP180;58935;54.498;18.544;2022-08-24T14:27:39;101163.40;;;24.40
71205;BMP180;58935;54.498;18.544;2022-08-24T14:30:38;101170.80;;;24.34
71205;BMP180;58935;54.498;18.544;2022-08-24T14:33:23;101167.00;;;24.30
71205;BMP180;58935;54.498;18.544;2022-08-24T14:36:18;101173.60;;;24.20
71205;BMP180;58935;54.498;18.544;2022-08-24T14:39:09;101169.00;;;24.10
71205;BMP180;58935;54.498;18.544;2022-08-24T14:41:51;101166.00;;;24.10
71205;BMP180;58935;54.498;18.544;2022-08-24T14:44:45;101160.40;;;24.10
71205;BMP180;58935;54.498;18.544;2022-08-24T14:47:33;101163.20;;;24.20
71205;BMP180;58935;54.498;18.544;2022-08-24T14:50:19;101162.00;;;24.00
71205;BMP180;58935;54.498;18.544;2022-08-24T14:55:44;101161.20;;;23.90
71205;BMP180;58935;54.498;18.544;2022-08-24T15:01:38;101167.40;;;23.62
71205;BMP180;58935;54.498;18.544;2022-08-24T15:04:29;101164.80;;;23.60
71205;BMP180;58935;54.498;18.544;2022-08-24T15:07:26;101167.80;;;23.60
71205;BMP180;58935;54.498;18.544;2022-08-24T15:09:54;101170.20;;;23.60
71205;BMP180;58935;54.498;18.544;2022-08-24T15:12:40;101173.00;;;23.56
71205;BMP180;58935;54.498;18.544;2022-08-24T15:15:23;101178.00;;;23.56
71205;BMP180;58935;54.498;18.544;2022-08-24T15:18:12;101180.80;;;23.50
71205;BMP180;58935;54.498;18.544;2022-08-24T15:21:09;101177.80;;;23.40
71205;BMP180;58935;54.498;18.544;2022-08-24T15:24:00;101181.40;;;23.32
71205;BMP180;58935;54.498;18.544;2022-08-24T15:29:33;101171.00;;;23.14
71205;BMP180;58935;54.498;18.544;2022-08-24T15:32:10;101174.60;;;23.10
71205;BMP180;58935;54.498;18.544;2022-08-24T15:34:50;101178.40;;;23.10
71205;BMP180;58935;54.498;18.544;2022-08-24T15:37:33;101177.60;;;23.10
71205;BMP180;58935;54.498;18.544;2022-08-24T15:40:03;101178.20;;;23.10
71205;BMP180;58935;54.498;18.544;2022-08-24T15:42:34;101178.20;;;23.10
71205;BMP180;58935;54.498;18.544;2022-08-24T15:45:03;101189.60;;;23.00